createdAt,value
2022-10-06T00:00:59.225Z,1013.65
2022-10-06T00:01:59.184Z,1013.64
2022-10-06T00:02:59.244Z,1013.66
2022-10-06T00:03:59.138Z,1013.70
2022-10-06T00:04:59.153Z,1013.67
2022-10-06T00:05:59.131Z,1013.69
2022-10-06T00:06:59.108Z,1013.69
2022-10-06T00:07:59.095Z,1013.70
2022-10-06T00:08:59.084Z,1013.66
2022-10-06T00:09:59.098Z,1013.64
2022-10-06T00:10:59.061Z,1013.65
2022-10-06T00:11:59.073Z,1013.68
2022-10-06T00:12:59.039Z,1013.70
2022-10-06T00:13:59.035Z,1013.73
2022-10-06T00:14:59.040Z,1013.76
2022-10-06T00:15:59.157Z,1013.70
2022-10-06T00:16:59.001Z,1013.76
2022-10-06T00:17:58.988Z,1013.74
2022-10-06T00:18:59.020Z,1013.79
2022-10-06T00:19:58.989Z,1013.77
2022-10-06T00:20:58.960Z,1013.70
2022-10-06T00:21:58.946Z,1013.80
2022-10-06T00:22:58.943Z,1013.73
2022-10-06T00:23:58.927Z,1013.82
2022-10-06T00:24:58.967Z,1013.81
2022-10-06T00:25:58.911Z,1013.88
2022-10-06T00:26:58.932Z,1013.87
2022-10-06T00:27:59.001Z,1013.82
2022-10-06T00:28:58.869Z,1013.86
2022-10-06T00:29:58.887Z,1013.91
2022-10-06T00:30:58.921Z,1013.86
2022-10-06T00:31:58.843Z,1013.81
2022-10-06T00:32:58.827Z,1013.89
2022-10-06T00:33:58.818Z,1013.89
2022-10-06T00:34:58.820Z,1013.87
2022-10-06T00:35:58.800Z,1013.88
2022-10-06T00:36:58.785Z,1013.84
2022-10-06T00:37:58.800Z,1013.89
2022-10-06T00:38:58.766Z,1013.97
2022-10-06T00:39:58.763Z,1013.90
2022-10-06T00:40:58.744Z,1013.87
2022-10-06T00:41:58.761Z,1013.95
2022-10-06T00:42:58.725Z,1013.94
2022-10-06T00:43:58.757Z,1013.99
2022-10-06T00:44:58.697Z,1013.97
2022-10-06T00:45:58.744Z,1014.00
2022-10-06T00:46:58.683Z,1013.96
2022-10-06T00:47:58.668Z,1013.95
2022-10-06T00:48:58.673Z,1013.98
2022-10-06T00:49:58.645Z,1013.99
2022-10-06T00:50:58.638Z,1013.95
2022-10-06T00:51:58.643Z,1013.95
2022-10-06T00:52:58.611Z,1013.99
2022-10-06T00:53:58.620Z,1013.99
2022-10-06T00:54:58.592Z,1013.99
2022-10-06T00:55:58.583Z,1013.96
2022-10-06T00:56:58.571Z,1013.98
2022-10-06T00:57:58.558Z,1013.89
2022-10-06T00:58:58.574Z,1013.94
2022-10-06T00:59:58.567Z,1014.00
2022-10-06T01:00:58.527Z,1013.96
2022-10-06T01:01:58.525Z,1013.94
2022-10-06T01:02:58.545Z,1013.96
2022-10-06T01:03:58.526Z,1014.00
2022-10-06T01:04:58.483Z,1014.05
2022-10-06T01:05:58.477Z,1014.10
2022-10-06T01:06:58.465Z,1014.04
2022-10-06T01:07:58.458Z,1014.07
2022-10-06T01:08:58.467Z,1014.09
2022-10-06T01:09:58.437Z,1014.07
2022-10-06T01:10:58.420Z,1014.10
2022-10-06T01:11:58.413Z,1014.11
2022-10-06T01:12:58.400Z,1014.17
2022-10-06T01:13:58.414Z,1014.15
2022-10-06T01:14:58.384Z,1014.16
2022-10-06T01:15:58.463Z,1014.17
2022-10-06T01:16:58.358Z,1014.14
2022-10-06T01:17:58.369Z,1014.21
2022-10-06T01:18:58.334Z,1014.17
2022-10-06T01:19:58.323Z,1014.19
2022-10-06T01:20:58.313Z,1014.21
2022-10-06T01:21:58.303Z,1014.16
2022-10-06T01:22:58.322Z,1014.16
2022-10-06T01:23:58.284Z,1014.19
2022-10-06T01:24:58.270Z,1014.15
2022-10-06T01:25:58.264Z,1014.17
2022-10-06T01:26:58.247Z,1014.20
2022-10-06T01:27:58.297Z,1014.20
2022-10-06T01:28:58.245Z,1014.20
2022-10-06T01:29:58.218Z,1014.17
2022-10-06T01:30:58.301Z,1014.13
2022-10-06T01:31:58.214Z,1014.21
2022-10-06T01:32:58.184Z,1014.23
2022-10-06T01:33:58.200Z,1014.19
2022-10-06T01:34:58.159Z,1014.21
2022-10-06T01:35:58.168Z,1014.19
2022-10-06T01:36:58.143Z,1014.24
2022-10-06T01:37:58.137Z,1014.29
2022-10-06T01:38:58.141Z,1014.20
2022-10-06T01:39:58.110Z,1014.27
2022-10-06T01:40:58.103Z,1014.34
2022-10-06T01:41:58.117Z,1014.39
2022-10-06T01:42:58.079Z,1014.32
2022-10-06T01:43:58.067Z,1014.34
2022-10-06T01:44:58.056Z,1014.38
2022-10-06T01:45:58.100Z,1014.34
2022-10-06T01:46:58.035Z,1014.35
2022-10-06T01:47:58.064Z,1014.36
2022-10-06T01:48:58.037Z,1014.35
2022-10-06T01:49:58.006Z,1014.37
2022-10-06T01:50:57.991Z,1014.36
2022-10-06T01:51:57.981Z,1014.37
2022-10-06T01:52:58.003Z,1014.38
2022-10-06T01:53:57.971Z,1014.36
2022-10-06T01:54:57.952Z,1014.31
2022-10-06T01:55:57.939Z,1014.34
2022-10-06T01:56:57.929Z,1014.35
2022-10-06T01:57:57.928Z,1014.34
2022-10-06T01:58:57.937Z,1014.42
2022-10-06T01:59:57.899Z,1014.38
2022-10-06T02:00:57.891Z,1014.39
2022-10-06T02:01:57.957Z,1014.39
2022-10-06T02:02:57.875Z,1014.42
2022-10-06T02:03:57.943Z,1014.41
2022-10-06T02:04:57.843Z,1014.37
2022-10-06T02:05:57.854Z,1014.38
2022-10-06T02:06:57.824Z,1014.34
2022-10-06T02:07:57.814Z,1014.33
2022-10-06T02:08:57.831Z,1014.38
2022-10-06T02:09:57.791Z,1014.34
2022-10-06T02:10:57.789Z,1014.36
2022-10-06T02:11:57.768Z,1014.34
2022-10-06T02:12:57.761Z,1014.36
2022-10-06T02:13:57.781Z,1014.37
2022-10-06T02:14:57.732Z,1014.36
2022-10-06T02:15:57.826Z,1014.36
2022-10-06T02:16:57.714Z,1014.39
2022-10-06T02:17:57.703Z,1014.40
2022-10-06T02:18:57.690Z,1014.42
2022-10-06T02:19:57.748Z,1014.37
2022-10-06T02:20:57.672Z,1014.42
2022-10-06T02:21:57.666Z,1014.44
2022-10-06T02:22:57.647Z,1014.43
2022-10-06T02:23:57.641Z,1014.41
2022-10-06T02:24:57.654Z,1014.44
2022-10-06T02:25:57.623Z,1014.45
2022-10-06T02:26:57.608Z,1014.40
2022-10-06T02:27:57.609Z,1014.53
2022-10-06T02:28:57.583Z,1014.54
2022-10-06T02:29:57.594Z,1014.50
2022-10-06T02:30:57.615Z,1014.51
2022-10-06T02:31:57.563Z,1014.51
2022-10-06T02:32:57.542Z,1014.55
2022-10-06T02:33:57.533Z,1014.53
2022-10-06T02:34:57.550Z,1014.56
2022-10-06T02:35:57.537Z,1014.58
2022-10-06T02:36:57.497Z,1014.63
2022-10-06T02:37:57.485Z,1014.54
2022-10-06T02:38:57.478Z,1014.61
2022-10-06T02:39:57.508Z,1014.54
2022-10-06T02:40:57.481Z,1014.56
2022-10-06T02:41:57.484Z,1014.55
2022-10-06T02:42:57.438Z,1014.62
2022-10-06T02:43:57.435Z,1014.58
2022-10-06T02:44:57.437Z,1014.65
2022-10-06T02:45:57.400Z,1014.54
2022-10-06T02:46:57.435Z,1014.67
2022-10-06T02:47:57.386Z,1014.71
2022-10-06T02:48:57.372Z,1014.68
2022-10-06T02:49:57.389Z,1014.71
2022-10-06T02:50:57.349Z,1014.68
2022-10-06T02:51:57.357Z,1014.76
2022-10-06T02:52:57.329Z,1014.67
2022-10-06T02:53:57.322Z,1014.73
2022-10-06T02:54:57.305Z,1014.77
2022-10-06T02:55:57.316Z,1014.81
2022-10-06T02:56:57.305Z,1014.74
2022-10-06T02:57:57.276Z,1014.83
2022-10-06T02:58:57.263Z,1014.76
2022-10-06T02:59:57.255Z,1014.77
2022-10-06T03:00:57.269Z,1014.74
2022-10-06T03:01:57.343Z,1014.73
2022-10-06T03:02:57.299Z,1014.79
2022-10-06T03:03:57.208Z,1014.85
2022-10-06T03:04:57.227Z,1014.82
2022-10-06T03:05:57.186Z,1014.88
2022-10-06T03:06:57.196Z,1014.89
2022-10-06T03:07:57.187Z,1015.00
2022-10-06T03:08:57.153Z,1014.99
2022-10-06T03:09:57.147Z,1014.89
2022-10-06T03:10:57.139Z,1014.93
2022-10-06T03:11:57.155Z,1014.94
2022-10-06T03:12:57.119Z,1015.05
2022-10-06T03:13:57.108Z,1015.09
2022-10-06T03:14:57.095Z,1015.07
2022-10-06T03:15:57.166Z,1015.11
2022-10-06T03:16:57.088Z,1015.11
2022-10-06T03:17:57.061Z,1015.07
2022-10-06T03:18:57.047Z,1015.16
2022-10-06T03:19:57.103Z,1015.21
2022-10-06T03:20:57.057Z,1015.16
2022-10-06T03:21:57.021Z,1015.22
2022-10-06T03:22:57.028Z,1015.26
2022-10-06T03:23:57.017Z,1015.28
2022-10-06T03:24:56.983Z,1015.32
2022-10-06T03:25:56.973Z,1015.34
2022-10-06T03:26:56.982Z,1015.37
2022-10-06T03:27:57.040Z,1015.37
2022-10-06T03:28:56.960Z,1015.39
2022-10-06T03:29:56.948Z,1015.46
2022-10-06T03:30:56.997Z,1015.48
2022-10-06T03:31:56.968Z,1015.49
2022-10-06T03:32:56.934Z,1015.51
2022-10-06T03:33:56.908Z,1015.62
2022-10-06T03:34:56.881Z,1015.58
2022-10-06T03:35:56.870Z,1015.52
2022-10-06T03:36:56.877Z,1015.54
2022-10-06T03:37:56.872Z,1015.54
2022-10-06T03:38:56.832Z,1015.59
2022-10-06T03:39:56.847Z,1015.65
2022-10-06T03:40:56.822Z,1015.63
2022-10-06T03:41:56.826Z,1015.69
2022-10-06T03:42:56.790Z,1015.74
2022-10-06T03:43:56.855Z,1015.73
2022-10-06T03:44:56.770Z,1015.78
2022-10-06T03:45:56.761Z,1015.80
2022-10-06T03:46:56.795Z,1015.87
2022-10-06T03:47:56.767Z,1015.85
2022-10-06T03:48:56.775Z,1015.82
2022-10-06T03:49:56.720Z,1015.90
2022-10-06T03:50:56.706Z,1015.86
2022-10-06T03:51:56.699Z,1015.88
2022-10-06T03:52:56.689Z,1016.02
2022-10-06T03:53:56.677Z,1016.00
2022-10-06T03:54:56.686Z,1016.05
2022-10-06T03:55:56.674Z,1016.07
2022-10-06T03:56:56.664Z,1016.06
2022-10-06T03:57:56.637Z,1016.00
2022-10-06T03:58:56.620Z,1016.03
2022-10-06T03:59:56.640Z,1016.02
2022-10-06T04:00:56.649Z,1016.11
2022-10-06T04:01:56.638Z,1016.16
2022-10-06T04:02:56.577Z,1016.17
2022-10-06T04:03:56.593Z,1016.19
2022-10-06T04:04:56.559Z,1016.29
2022-10-06T04:05:56.549Z,1016.34
2022-10-06T04:06:56.538Z,1016.32
2022-10-06T04:07:56.523Z,1016.31
2022-10-06T04:08:56.532Z,1016.39
2022-10-06T04:09:56.507Z,1016.44
2022-10-06T04:10:56.490Z,1016.37
2022-10-06T04:11:56.514Z,1016.41
2022-10-06T04:12:56.476Z,1016.50
2022-10-06T04:13:56.487Z,1016.44
2022-10-06T04:14:59.996Z,1016.58
2022-10-06T04:15:56.484Z,1016.61
2022-10-06T04:16:56.429Z,1016.61
2022-10-06T04:17:56.420Z,1016.58
2022-10-06T04:18:56.409Z,1016.63
2022-10-06T04:19:56.421Z,1016.66
2022-10-06T04:20:56.387Z,1016.62
2022-10-06T04:21:56.378Z,1016.73
2022-10-06T04:22:56.397Z,1016.63
2022-10-06T04:23:56.356Z,1016.69
2022-10-06T04:24:56.343Z,1016.72
2022-10-06T04:25:56.332Z,1016.80
2022-10-06T04:26:56.322Z,1016.88
2022-10-06T04:27:56.457Z,1016.92
2022-10-06T04:28:56.326Z,1016.91
2022-10-06T04:29:56.292Z,1016.78
2022-10-06T04:30:56.282Z,1016.86
2022-10-06T04:31:56.291Z,1016.81
2022-10-06T04:32:56.280Z,1016.70
2022-10-06T04:33:56.243Z,1016.72
2022-10-06T04:34:56.276Z,1016.71
2022-10-06T04:35:56.258Z,1016.65
2022-10-06T04:36:56.215Z,1016.60
2022-10-06T04:37:56.238Z,1016.67
2022-10-06T04:38:56.200Z,1016.66
2022-10-06T04:39:56.188Z,1016.67
2022-10-06T04:40:56.177Z,1016.79
2022-10-06T04:41:56.160Z,1016.77
2022-10-06T04:42:56.183Z,1016.76
2022-10-06T04:43:56.163Z,1016.80
2022-10-06T04:44:56.128Z,1016.83
2022-10-06T04:45:56.182Z,1016.89
2022-10-06T04:46:56.173Z,1016.99
2022-10-06T04:47:56.097Z,1017.02
2022-10-06T04:48:56.109Z,1017.01
2022-10-06T04:49:56.080Z,1016.99
2022-10-06T04:50:56.068Z,1017.01
2022-10-06T04:51:56.074Z,1017.05
2022-10-06T04:52:56.049Z,1017.08
2022-10-06T04:53:56.176Z,1017.05
2022-10-06T04:54:56.024Z,1017.07
2022-10-06T04:55:56.009Z,1017.10
2022-10-06T04:56:56.001Z,1017.10
2022-10-06T04:57:55.992Z,1017.15
2022-10-06T04:58:55.981Z,1017.17
2022-10-06T04:59:56.103Z,1017.17
2022-10-06T05:00:56.029Z,1017.13
2022-10-06T05:01:56.007Z,1017.24
2022-10-06T05:02:55.955Z,1017.19
2022-10-06T05:03:55.922Z,1017.39
2022-10-06T05:04:55.917Z,1017.30
2022-10-06T05:05:55.923Z,1017.30
2022-10-06T05:06:55.895Z,1017.29
2022-10-06T05:07:55.880Z,1017.22
2022-10-06T05:08:55.868Z,1017.40
2022-10-06T05:09:55.872Z,1017.34
2022-10-06T05:10:55.851Z,1017.34
2022-10-06T05:11:55.843Z,1017.39
2022-10-06T05:12:55.833Z,1017.41
2022-10-06T05:13:55.822Z,1017.48
2022-10-06T05:14:55.827Z,1017.48
2022-10-06T05:15:55.810Z,1017.51
2022-10-06T05:16:55.780Z,1017.54
2022-10-06T05:17:55.769Z,1017.55
2022-10-06T05:18:55.758Z,1017.63
2022-10-06T05:19:55.765Z,1017.58
2022-10-06T05:20:55.733Z,1017.59
2022-10-06T05:21:55.747Z,1017.67
2022-10-06T05:22:55.716Z,1017.74
2022-10-06T05:23:55.702Z,1017.78
2022-10-06T05:24:55.697Z,1017.80
2022-10-06T05:25:55.676Z,1017.87
2022-10-06T05:26:59.572Z,1017.92
2022-10-06T05:27:56.729Z,1017.79
2022-10-06T05:28:55.649Z,1017.84
2022-10-06T05:29:55.636Z,1017.89
2022-10-06T05:30:55.622Z,1017.99
2022-10-06T05:31:55.809Z,1018.01
2022-10-06T05:32:55.602Z,1018.00
2022-10-06T05:33:55.615Z,1018.02
2022-10-06T05:34:55.586Z,1018.03
2022-10-06T05:35:55.571Z,1018.04
2022-10-06T05:36:55.563Z,1018.13
2022-10-06T05:37:55.609Z,1018.20
2022-10-06T05:38:55.565Z,1018.16
2022-10-06T05:39:55.526Z,1018.22
2022-10-06T05:40:55.520Z,1018.17
2022-10-06T05:41:55.505Z,1018.29
2022-10-06T05:42:55.497Z,1018.22
2022-10-06T05:43:55.507Z,1018.31
2022-10-06T05:44:55.483Z,1018.34
2022-10-06T05:45:55.561Z,1018.34
2022-10-06T05:46:55.457Z,1018.38
2022-10-06T05:47:55.491Z,1018.47
2022-10-06T05:48:55.428Z,1018.52
2022-10-06T05:49:55.421Z,1018.51
2022-10-06T05:50:55.410Z,1018.57
2022-10-06T05:51:55.398Z,1018.55
2022-10-06T05:52:55.424Z,1018.62
2022-10-06T05:53:55.393Z,1018.67
2022-10-06T05:54:55.368Z,1018.72
2022-10-06T05:55:55.355Z,1018.76
2022-10-06T05:56:55.344Z,1018.81
2022-10-06T05:57:55.354Z,1018.86
2022-10-06T05:58:55.387Z,1018.95
2022-10-06T05:59:55.341Z,1018.93
2022-10-06T06:00:55.316Z,1018.86
2022-10-06T06:01:55.421Z,1018.93
2022-10-06T06:02:55.322Z,1018.92
2022-10-06T06:03:55.314Z,1019.03
2022-10-06T06:04:55.260Z,1019.05
2022-10-06T06:05:55.251Z,1019.20
2022-10-06T06:06:55.237Z,1019.20
2022-10-06T06:07:55.250Z,1019.24
2022-10-06T06:08:55.219Z,1019.22
2022-10-06T06:09:55.205Z,1019.19
2022-10-06T06:10:55.191Z,1019.20
2022-10-06T06:11:55.181Z,1019.15
2022-10-06T06:12:55.195Z,1019.24
2022-10-06T06:13:55.158Z,1019.37
2022-10-06T06:14:55.146Z,1019.39
2022-10-06T06:15:55.142Z,1019.44
2022-10-06T06:16:55.191Z,1019.42
2022-10-06T06:17:55.145Z,1019.41
2022-10-06T06:18:55.103Z,1019.44
2022-10-06T06:19:55.121Z,1019.46
2022-10-06T06:20:55.083Z,1019.55
2022-10-06T06:21:55.077Z,1019.59
2022-10-06T06:22:55.086Z,1019.57
2022-10-06T06:23:55.054Z,1019.70
2022-10-06T06:24:55.042Z,1019.69
2022-10-06T06:25:57.658Z,1019.68
2022-10-06T06:26:56.024Z,1019.65
2022-10-06T06:27:55.141Z,1019.65
2022-10-06T06:28:55.132Z,1019.76
2022-10-06T06:29:54.983Z,1019.77
2022-10-06T06:30:55.017Z,1019.81
2022-10-06T06:31:54.983Z,1019.73
2022-10-06T06:32:54.982Z,1019.88
2022-10-06T06:33:54.937Z,1019.80
2022-10-06T06:34:54.943Z,1019.93
2022-10-06T06:35:54.935Z,1019.87
2022-10-06T06:36:54.918Z,1019.92
2022-10-06T06:37:54.925Z,1019.96
2022-10-06T06:38:54.892Z,1019.91
2022-10-06T06:39:54.878Z,1019.97
2022-10-06T06:40:54.867Z,1019.97
2022-10-06T06:41:54.859Z,1019.96
2022-10-06T06:42:54.867Z,1020.01
2022-10-06T06:43:54.849Z,1020.16
2022-10-06T06:44:54.828Z,1020.13
2022-10-06T06:45:54.839Z,1020.15
2022-10-06T06:46:54.825Z,1020.23
2022-10-06T06:47:54.788Z,1020.23
2022-10-06T06:48:54.790Z,1020.28
2022-10-06T06:49:54.779Z,1020.27
2022-10-06T06:50:54.838Z,1020.21
2022-10-06T06:51:54.800Z,1020.23
2022-10-06T06:52:54.738Z,1020.24
2022-10-06T06:53:54.724Z,1020.24
2022-10-06T06:54:54.717Z,1020.31
2022-10-06T06:55:54.699Z,1020.33
2022-10-06T06:56:54.731Z,1020.44
2022-10-06T06:57:54.681Z,1020.31
2022-10-06T06:58:54.671Z,1020.35
2022-10-06T06:59:54.663Z,1020.37
2022-10-06T07:00:54.737Z,1020.44
2022-10-06T07:01:54.757Z,1020.43
2022-10-06T07:02:54.715Z,1020.43
2022-10-06T07:03:58.833Z,1020.44
2022-10-06T07:04:54.617Z,1020.51
2022-10-06T07:05:54.591Z,1020.54
2022-10-06T07:06:54.625Z,1020.54
2022-10-06T07:07:54.591Z,1020.55
2022-10-06T07:08:54.564Z,1020.51
2022-10-06T07:09:54.555Z,1020.68
2022-10-06T07:10:54.546Z,1020.67
2022-10-06T07:11:54.532Z,1020.65
2022-10-06T07:12:54.550Z,1020.67
2022-10-06T07:13:54.509Z,1020.66
2022-10-06T07:14:54.500Z,1020.66
2022-10-06T07:15:54.553Z,1020.74
2022-10-06T07:16:54.477Z,1020.74
2022-10-06T07:17:54.493Z,1020.75
2022-10-06T07:18:54.455Z,1020.82
2022-10-06T07:19:54.452Z,1020.84
2022-10-06T07:20:54.434Z,1020.82
2022-10-06T07:21:54.424Z,1020.92
2022-10-06T07:22:54.433Z,1020.91
2022-10-06T07:23:54.423Z,1020.96
2022-10-06T07:24:54.396Z,1020.97
2022-10-06T07:25:54.382Z,1020.99
2022-10-06T07:26:54.373Z,1020.97
2022-10-06T07:27:54.379Z,1021.03
2022-10-06T07:28:54.357Z,1021.01
2022-10-06T07:29:54.685Z,1020.98
2022-10-06T07:30:54.378Z,1021.00
2022-10-06T07:31:54.313Z,1021.09
2022-10-06T07:32:54.332Z,1021.05
2022-10-06T07:33:54.293Z,1021.13
2022-10-06T07:34:54.478Z,1021.11
2022-10-06T07:35:54.277Z,1021.08
2022-10-06T07:36:54.266Z,1021.16
2022-10-06T07:37:54.278Z,1021.17
2022-10-06T07:38:54.241Z,1021.20
2022-10-06T07:39:54.247Z,1021.18
2022-10-06T07:41:18.519Z,1021.20
2022-10-06T07:41:55.210Z,1021.17
2022-10-06T07:42:54.227Z,1021.25
2022-10-06T07:43:54.186Z,1021.26
2022-10-06T07:44:54.607Z,1021.28
2022-10-06T07:45:54.231Z,1021.32
2022-10-06T07:46:54.156Z,1021.25
2022-10-06T07:47:54.167Z,1021.28
2022-10-06T07:48:54.137Z,1021.32
2022-10-06T07:49:54.124Z,1021.30
2022-10-06T07:50:54.116Z,1021.36
2022-10-06T07:51:54.108Z,1021.31
2022-10-06T07:52:54.129Z,1021.40
2022-10-06T07:53:54.105Z,1021.39
2022-10-06T07:54:54.387Z,1021.35
2022-10-06T07:55:54.073Z,1021.46
2022-10-06T07:56:54.046Z,1021.34
2022-10-06T07:57:54.037Z,1021.43
2022-10-06T07:58:54.044Z,1021.43
2022-10-06T07:59:54.017Z,1021.49
2022-10-06T08:00:54.006Z,1021.52
2022-10-06T08:01:54.080Z,1021.58
2022-10-06T08:02:54.032Z,1021.55
2022-10-06T08:03:53.965Z,1021.56
2022-10-06T08:04:54.204Z,1021.57
2022-10-06T08:05:53.963Z,1021.60
2022-10-06T08:06:53.960Z,1021.63
2022-10-06T08:07:53.927Z,1021.67
2022-10-06T08:08:53.918Z,1021.67
2022-10-06T08:09:53.909Z,1021.73
2022-10-06T08:10:53.890Z,1021.70
2022-10-06T08:11:53.916Z,1021.70
2022-10-06T08:12:53.883Z,1021.75
2022-10-06T08:13:53.859Z,1021.76
2022-10-06T08:14:54.132Z,1021.73
2022-10-06T08:15:53.945Z,1021.78
2022-10-06T08:16:53.828Z,1021.79
2022-10-06T08:17:53.848Z,1021.83
2022-10-06T08:18:53.811Z,1021.84
2022-10-06T08:19:53.819Z,1021.93
2022-10-06T08:20:53.784Z,1021.95
2022-10-06T08:21:53.791Z,1021.92
2022-10-06T08:22:53.787Z,1022.00
2022-10-06T08:23:53.756Z,1022.02
2022-10-06T08:25:05.908Z,1021.99
2022-10-06T08:25:54.789Z,1022.03
2022-10-06T08:26:53.740Z,1022.06
2022-10-06T08:27:53.830Z,1022.10
2022-10-06T08:28:53.694Z,1022.10
2022-10-06T08:29:53.681Z,1022.11
2022-10-06T08:30:53.672Z,1022.14
2022-10-06T08:31:53.744Z,1022.15
2022-10-06T08:32:53.647Z,1022.24
2022-10-06T08:33:53.640Z,1022.20
2022-10-06T08:34:53.973Z,1022.23
2022-10-06T08:35:53.618Z,1022.19
2022-10-06T08:37:15.900Z,1022.25
2022-10-06T08:37:54.589Z,1022.25
2022-10-06T08:38:53.613Z,1022.30
2022-10-06T08:39:53.596Z,1022.26
2022-10-06T08:40:53.557Z,1022.37
2022-10-06T08:41:53.558Z,1022.28
2022-10-06T08:42:53.542Z,1022.38
2022-10-06T08:43:53.596Z,1022.27
2022-10-06T08:44:53.855Z,1022.36
2022-10-06T08:46:53.493Z,1022.42
2022-10-06T08:47:53.482Z,1022.34
2022-10-06T08:48:53.496Z,1022.43
2022-10-06T08:49:53.653Z,1022.45
2022-10-06T08:50:53.460Z,1022.41
2022-10-06T08:51:53.438Z,1022.48
2022-10-06T08:52:53.425Z,1022.49
2022-10-06T08:53:53.416Z,1022.48
2022-10-06T08:54:53.430Z,1022.49
2022-10-06T08:55:53.398Z,1022.47
2022-10-06T08:56:53.385Z,1022.46
2022-10-06T08:57:53.375Z,1022.50
2022-10-06T08:58:53.362Z,1022.56
2022-10-06T08:59:54.033Z,1022.48
2022-10-06T09:00:53.379Z,1022.51
2022-10-06T09:01:53.418Z,1022.56
2022-10-06T09:02:53.317Z,1022.47
2022-10-06T09:03:53.336Z,1022.50
2022-10-06T09:04:53.294Z,1022.61
2022-10-06T09:05:53.315Z,1022.56
2022-10-06T09:06:53.269Z,1022.60
2022-10-06T09:07:53.268Z,1022.58
2022-10-06T09:08:53.251Z,1022.61
2022-10-06T09:09:53.687Z,1022.67
2022-10-06T09:10:53.232Z,1022.65
2022-10-06T09:11:53.244Z,1022.58
2022-10-06T09:12:53.207Z,1022.68
2022-10-06T09:13:53.266Z,1022.61
2022-10-06T09:14:53.187Z,1022.67
2022-10-06T09:15:53.256Z,1022.68
2022-10-06T09:16:53.186Z,1022.61
2022-10-06T09:17:53.149Z,1022.67
2022-10-06T09:19:09.581Z,1022.69
2022-10-06T09:19:54.469Z,1022.71
2022-10-06T09:20:53.152Z,1022.77
2022-10-06T09:21:53.176Z,1022.75
2022-10-06T09:22:53.094Z,1022.75
2022-10-06T09:23:53.089Z,1022.79
2022-10-06T09:24:53.072Z,1022.70
2022-10-06T09:25:53.088Z,1022.68
2022-10-06T09:26:53.075Z,1022.70
2022-10-06T09:27:53.045Z,1022.77
2022-10-06T09:28:53.036Z,1022.74
2022-10-06T09:29:53.263Z,1022.71
2022-10-06T09:30:55.388Z,1022.80
2022-10-06T09:31:53.126Z,1022.76
2022-10-06T09:32:52.987Z,1022.87
2022-10-06T09:33:52.982Z,1022.83
2022-10-06T09:34:52.966Z,1022.83
2022-10-06T09:35:52.995Z,1022.88
2022-10-06T09:36:54.228Z,1022.95
2022-10-06T09:37:52.945Z,1022.94
2022-10-06T09:38:52.928Z,1022.98
2022-10-06T09:39:53.155Z,1022.96
2022-10-06T09:40:52.902Z,1023.04
2022-10-06T09:41:52.893Z,1022.95
2022-10-06T09:42:52.883Z,1023.01
2022-10-06T09:43:52.873Z,1023.01
2022-10-06T09:44:52.859Z,1022.99
2022-10-06T09:45:52.891Z,1023.09
2022-10-06T09:46:52.840Z,1023.04
2022-10-06T09:47:52.857Z,1023.04
2022-10-06T09:48:52.817Z,1023.05
2022-10-06T09:49:53.067Z,1023.11
2022-10-06T09:50:52.821Z,1023.08
2022-10-06T09:51:52.801Z,1023.09
2022-10-06T09:52:52.771Z,1023.07
2022-10-06T09:53:52.789Z,1023.02
2022-10-06T09:54:52.753Z,1023.08
2022-10-06T09:55:52.777Z,1023.17
2022-10-06T09:56:52.744Z,1023.08
2022-10-06T09:57:52.720Z,1023.12
2022-10-06T09:58:52.719Z,1023.16
2022-10-06T09:59:52.722Z,1023.18
2022-10-06T10:00:52.774Z,1023.15
2022-10-06T10:01:52.674Z,1023.20
2022-10-06T10:02:52.717Z,1023.22
2022-10-06T10:04:22.033Z,1023.27
2022-10-06T10:04:53.639Z,1023.28
2022-10-06T10:05:52.656Z,1023.29
2022-10-06T10:06:52.632Z,1023.28
2022-10-06T10:07:52.610Z,1023.23
2022-10-06T10:08:52.604Z,1023.32
2022-10-06T10:09:52.594Z,1023.29
2022-10-06T10:10:52.603Z,1023.28
2022-10-06T10:11:52.568Z,1023.26
2022-10-06T10:12:52.583Z,1023.28
2022-10-06T10:13:52.562Z,1023.41
2022-10-06T10:14:52.534Z,1023.39
2022-10-06T10:15:52.965Z,1023.40
2022-10-06T10:16:53.492Z,1023.33
2022-10-06T10:17:52.505Z,1023.35
2022-10-06T10:18:52.489Z,1023.34
2022-10-06T10:19:52.504Z,1023.35
2022-10-06T10:20:52.469Z,1023.32
2022-10-06T10:21:52.458Z,1023.27
2022-10-06T10:22:52.472Z,1023.42
2022-10-06T10:23:52.437Z,1023.38
2022-10-06T10:24:52.429Z,1023.31
2022-10-06T10:25:52.416Z,1023.35
2022-10-06T10:26:52.404Z,1023.43
2022-10-06T10:27:52.424Z,1023.39
2022-10-06T10:28:52.384Z,1023.45
2022-10-06T10:29:52.373Z,1023.42
2022-10-06T10:30:52.358Z,1023.48
2022-10-06T10:31:52.431Z,1023.40
2022-10-06T10:32:52.341Z,1023.41
2022-10-06T10:34:05.139Z,1023.50
2022-10-06T10:34:53.322Z,1023.39
2022-10-06T10:35:52.329Z,1023.41
2022-10-06T10:36:52.296Z,1023.38
2022-10-06T10:37:52.311Z,1023.46
2022-10-06T10:38:52.299Z,1023.47
2022-10-06T10:39:52.263Z,1023.45
2022-10-06T10:40:52.252Z,1023.42
2022-10-06T10:41:52.248Z,1023.40
2022-10-06T10:42:52.260Z,1023.38
2022-10-06T10:43:52.225Z,1023.37
2022-10-06T10:44:52.230Z,1023.40
2022-10-06T10:45:52.200Z,1023.45
2022-10-06T10:46:52.285Z,1023.39
2022-10-06T10:47:52.197Z,1023.53
2022-10-06T10:48:52.204Z,1023.46
2022-10-06T10:49:52.161Z,1023.53
2022-10-06T10:50:52.142Z,1023.42
2022-10-06T10:51:52.150Z,1023.49
2022-10-06T10:52:52.128Z,1023.58
2022-10-06T10:53:52.116Z,1023.50
2022-10-06T10:54:52.129Z,1023.58
2022-10-06T10:55:52.094Z,1023.60
2022-10-06T10:56:52.081Z,1023.59
2022-10-06T10:57:52.098Z,1023.59
2022-10-06T10:58:52.057Z,1023.66
2022-10-06T10:59:52.052Z,1023.67
2022-10-06T11:00:52.098Z,1023.74
2022-10-06T11:01:52.057Z,1023.62
2022-10-06T11:02:52.040Z,1023.71
2022-10-06T11:03:52.009Z,1023.74
2022-10-06T11:04:51.992Z,1023.67
2022-10-06T11:05:52.004Z,1023.73
2022-10-06T11:06:51.972Z,1023.73
2022-10-06T11:07:52.013Z,1023.74
2022-10-06T11:08:51.954Z,1023.69
2022-10-06T11:09:51.937Z,1023.74
2022-10-06T11:10:51.956Z,1023.68
2022-10-06T11:11:52.521Z,1023.76
2022-10-06T11:12:51.908Z,1023.66
2022-10-06T11:13:51.900Z,1023.73
2022-10-06T11:14:51.892Z,1023.68
2022-10-06T11:15:51.993Z,1023.78
2022-10-06T11:16:51.868Z,1023.69
2022-10-06T11:17:51.860Z,1023.74
2022-10-06T11:18:51.846Z,1023.74
2022-10-06T11:19:51.838Z,1023.71
2022-10-06T11:20:51.964Z,1023.71
2022-10-06T11:21:51.817Z,1023.76
2022-10-06T11:22:51.833Z,1023.70
2022-10-06T11:23:51.820Z,1023.77
2022-10-06T11:24:51.850Z,1023.70
2022-10-06T11:25:51.772Z,1023.78
2022-10-06T11:26:51.778Z,1023.71
2022-10-06T11:27:51.778Z,1023.82
2022-10-06T11:28:51.735Z,1023.80
2022-10-06T11:29:51.730Z,1023.79
2022-10-06T11:30:51.717Z,1023.75
2022-10-06T11:31:51.889Z,1023.91
2022-10-06T11:32:51.694Z,1023.79
2022-10-06T11:33:51.710Z,1023.84
2022-10-06T11:34:51.674Z,1023.83
2022-10-06T11:35:51.680Z,1023.84
2022-10-06T11:36:51.648Z,1023.82
2022-10-06T11:37:51.638Z,1023.85
2022-10-06T11:38:51.633Z,1023.88
2022-10-06T11:39:51.638Z,1023.95
2022-10-06T11:40:51.623Z,1023.84
2022-10-06T11:41:51.635Z,1023.90
2022-10-06T11:42:51.582Z,1023.89
2022-10-06T11:43:51.576Z,1023.87
2022-10-06T11:44:51.562Z,1023.85
2022-10-06T11:45:51.612Z,1023.93
2022-10-06T11:46:51.537Z,1023.89
2022-10-06T11:47:51.556Z,1023.92
2022-10-06T11:48:51.517Z,1023.90
2022-10-06T11:49:51.505Z,1023.91
2022-10-06T11:50:51.496Z,1023.90
2022-10-06T11:51:54.648Z,1023.95
2022-10-06T11:52:52.510Z,1023.95
2022-10-06T11:53:51.460Z,1023.98
2022-10-06T11:54:51.452Z,1023.99
2022-10-06T11:55:51.457Z,1023.92
2022-10-06T11:56:51.429Z,1023.96
2022-10-06T11:57:51.440Z,1024.02
2022-10-06T11:58:51.410Z,1024.06
2022-10-06T11:59:51.404Z,1023.99
2022-10-06T12:00:51.392Z,1023.97
2022-10-06T12:01:51.529Z,1024.00
2022-10-06T12:02:51.574Z,1023.96
2022-10-06T12:03:51.357Z,1024.01
2022-10-06T12:04:51.341Z,1024.05
2022-10-06T12:05:58.428Z,1023.95
2022-10-06T12:06:52.346Z,1024.01